sensor_id;sensor_type;location;lat;lon;timestamp;temperature;humidity
5276;DHT22;2661;50.786;12.728;2022-10-23T00:01:37;10.90;99.90
5276;DHT22;2661;50.786;12.728;2022-10-23T00:04:05;10.90;53.00
5276;DHT22;2661;50.786;12.728;2022-10-23T00:06:32;10.80;99.90
5276;DHT22;2661;50.786;12.728;2022-10-23T00:08:59;10.80;99.90
5276;DHT22;2661;50.786;12.728;2022-10-23T00:11:27;10.80;99.90
5276;DHT22;2661;50.786;12.728;2022-10-23T00:13:55;10.80;1.00
5276;DHT22;2661;50.786;12.728;2022-10-23T00:16:22;10.80;99.90
5276;DHT22;2661;50.786;12.728;2022-10-23T00:18:48;10.80;99.90
5276;DHT22;2661;50.786;12.728;2022-10-23T00:21:15;10.70;99.90
5276;DHT22;2661;50.786;12.728;2022-10-23T00:23:43;10.70;99.90
5276;DHT22;2661;50.786;12.728;2022-10-23T00:26:10;10.70;99.90
5276;DHT22;2661;50.786;12.728;2022-10-23T00:28:44;10.70;99.90
5276;DHT22;2661;50.786;12.728;2022-10-23T00:31:11;10.60;3.10
5276;DHT22;2661;50.786;12.728;2022-10-23T00:33:38;10.60;1.00
5276;DHT22;2661;50.786;12.728;2022-10-23T00:36:05;10.60;99.90
5276;DHT22;2661;50.786;12.728;2022-10-23T00:38:33;10.60;1.00
5276;DHT22;2661;50.786;12.728;2022-10-23T00:40:59;10.60;99.90
5276;DHT22;2661;50.786;12.728;2022-10-23T00:43:27;10.60;83.60
5276;DHT22;2661;50.786;12.728;2022-10-23T00:45:54;10.60;12.00
5276;DHT22;2661;50.786;12.728;2022-10-23T00:48:20;10.50;99.90
5276;DHT22;2661;50.786;12.728;2022-10-23T00:50:47;10.60;1.00
5276;DHT22;2661;50.786;12.728;2022-10-23T00:53:15;10.50;1.00
5276;DHT22;2661;50.786;12.728;2022-10-23T00:55:42;10.50;1.00
5276;DHT22;2661;50.786;12.728;2022-10-23T00:58:13;10.40;1.00
5276;DHT22;2661;50.786;12.728;2022-10-23T01:00:44;10.40;1.00
5276;DHT22;2661;50.786;12.728;2022-10-23T01:03:12;10.40;1.00
5276;DHT22;2661;50.786;12.728;2022-10-23T01:08:16;10.40;1.00
5276;DHT22;2661;50.786;12.728;2022-10-23T01:10:51;10.40;1.00
5276;DHT22;2661;50.786;12.728;2022-10-23T01:16:00;10.40;1.00
5276;DHT22;2661;50.786;12.728;2022-10-23T01:18:33;10.40;1.00
5276;DHT22;2661;50.786;12.728;2022-10-23T01:21:24;10.40;1.00
5276;DHT22;2661;50.786;12.728;2022-10-23T01:23:59;10.30;1.00
5276;DHT22;2661;50.786;12.728;2022-10-23T01:26:31;10.30;1.00
5276;DHT22;2661;50.786;12.728;2022-10-23T01:29:13;10.30;1.00
5276;DHT22;2661;50.786;12.728;2022-10-23T01:31:44;10.30;1.00
5276;DHT22;2661;50.786;12.728;2022-10-23T01:34:17;10.30;1.00
5276;DHT22;2661;50.786;12.728;2022-10-23T01:36:46;10.30;1.00
5276;DHT22;2661;50.786;12.728;2022-10-23T01:42:09;10.20;1.00
5276;DHT22;2661;50.786;12.728;2022-10-23T01:45:11;10.20;1.00
5276;DHT22;2661;50.786;12.728;2022-10-23T01:47:30;10.20;1.00
5276;DHT22;2661;50.786;12.728;2022-10-23T01:49:59;10.20;1.00
5276;DHT22;2661;50.786;12.728;2022-10-23T01:52:27;10.20;1.00
5276;DHT22;2661;50.786;12.728;2022-10-23T01:54:53;10.20;1.00
5276;DHT22;2661;50.786;12.728;2022-10-23T01:57:21;10.10;1.00
5276;DHT22;2661;50.786;12.728;2022-10-23T01:59:50;10.10;1.00
5276;DHT22;2661;50.786;12.728;2022-10-23T02:02:17;10.10;1.00
5276;DHT22;2661;50.786;12.728;2022-10-23T02:04:52;10.10;99.90
5276;DHT22;2661;50.786;12.728;2022-10-23T02:07:21;10.10;1.00
5276;DHT22;2661;50.786;12.728;2022-10-23T02:09:48;10.00;1.00
5276;DHT22;2661;50.786;12.728;2022-10-23T02:12:22;10.00;1.00
5276;DHT22;2661;50.786;12.728;2022-10-23T02:14:52;10.00;1.00
5276;DHT22;2661;50.786;12.728;2022-10-23T02:17:20;10.00;1.00
5276;DHT22;2661;50.786;12.728;2022-10-23T02:20:09;10.00;1.00
5276;DHT22;2661;50.786;12.728;2022-10-23T02:22:40;10.00;1.00
5276;DHT22;2661;50.786;12.728;2022-10-23T02:25:10;9.90;1.00
5276;DHT22;2661;50.786;12.728;2022-10-23T02:27:43;9.90;1.00
5276;DHT22;2661;50.786;12.728;2022-10-23T02:30:11;9.90;1.00
5276;DHT22;2661;50.786;12.728;2022-10-23T02:32:40;9.90;1.00
5276;DHT22;2661;50.786;12.728;2022-10-23T02:35:08;9.80;99.90
5276;DHT22;2661;50.786;12.728;2022-10-23T02:37:34;9.80;99.90
5276;DHT22;2661;50.786;12.728;2022-10-23T02:40:01;9.80;99.90
5276;DHT22;2661;50.786;12.728;2022-10-23T02:42:30;9.80;99.90
5276;DHT22;2661;50.786;12.728;2022-10-23T02:45:02;9.70;99.90
5276;DHT22;2661;50.786;12.728;2022-10-23T02:47:49;9.70;99.90
5276;DHT22;2661;50.786;12.728;2022-10-23T03:00:34;9.60;99.90
5276;DHT22;2661;50.786;12.728;2022-10-23T03:03:05;9.60;99.90
5276;DHT22;2661;50.786;12.728;2022-10-23T03:05:35;9.60;99.90
5276;DHT22;2661;50.786;12.728;2022-10-23T03:08:04;9.60;99.90
5276;DHT22;2661;50.786;12.728;2022-10-23T03:10:31;9.60;99.90
5276;DHT22;2661;50.786;12.728;2022-10-23T03:12:57;9.60;99.90
5276;DHT22;2661;50.786;12.728;2022-10-23T03:15:24;9.50;99.90
5276;DHT22;2661;50.786;12.728;2022-10-23T03:20:20;9.50;99.90
5276;DHT22;2661;50.786;12.728;2022-10-23T03:22:47;9.50;99.90
5276;DHT22;2661;50.786;12.728;2022-10-23T03:25:13;9.40;99.90
5276;DHT22;2661;50.786;12.728;2022-10-23T03:27:40;9.40;99.90
5276;DHT22;2661;50.786;12.728;2022-10-23T03:30:07;9.40;99.90
5276;DHT22;2661;50.786;12.728;2022-10-23T03:32:33;9.40;99.90
5276;DHT22;2661;50.786;12.728;2022-10-23T03:35:00;9.40;99.90
5276;DHT22;2661;50.786;12.728;2022-10-23T03:37:27;9.40;99.90
5276;DHT22;2661;50.786;12.728;2022-10-23T03:39:53;9.40;99.90
5276;DHT22;2661;50.786;12.728;2022-10-23T03:42:20;9.40;99.90
5276;DHT22;2661;50.786;12.728;2022-10-23T03:44:46;9.40;99.90
5276;DHT22;2661;50.786;12.728;2022-10-23T03:47:13;9.40;99.90
5276;DHT22;2661;50.786;12.728;2022-10-23T03:49:39;9.40;99.90
5276;DHT22;2661;50.786;12.728;2022-10-23T03:52:06;9.40;99.90
5276;DHT22;2661;50.786;12.728;2022-10-23T03:54:33;9.40;99.90
5276;DHT22;2661;50.786;12.728;2022-10-23T03:57:00;9.40;99.90
5276;DHT22;2661;50.786;12.728;2022-10-23T03:59:27;9.40;99.90
5276;DHT22;2661;50.786;12.728;2022-10-23T04:01:53;9.40;99.90
5276;DHT22;2661;50.786;12.728;2022-10-23T04:04:20;9.40;99.90
5276;DHT22;2661;50.786;12.728;2022-10-23T04:06:47;9.40;99.90
5276;DHT22;2661;50.786;12.728;2022-10-23T04:09:14;9.30;99.90
5276;DHT22;2661;50.786;12.728;2022-10-23T04:11:40;9.30;99.90
5276;DHT22;2661;50.786;12.728;2022-10-23T04:14:07;9.30;99.90
5276;DHT22;2661;50.786;12.728;2022-10-23T04:16:36;9.30;99.90
5276;DHT22;2661;50.786;12.728;2022-10-23T04:19:02;9.30;99.90
5276;DHT22;2661;50.786;12.728;2022-10-23T04:21:29;9.30;99.90
5276;DHT22;2661;50.786;12.728;2022-10-23T04:23:56;9.30;99.90
5276;DHT22;2661;50.786;12.728;2022-10-23T04:26:22;9.20;99.90
5276;DHT22;2661;50.786;12.728;2022-10-23T04:28:49;9.20;99.90
5276;DHT22;2661;50.786;12.728;2022-10-23T04:31:15;9.20;99.90
5276;DHT22;2661;50.786;12.728;2022-10-23T04:33:42;9.20;99.90
5276;DHT22;2661;50.786;12.728;2022-10-23T04:36:08;9.20;99.90
5276;DHT22;2661;50.786;12.728;2022-10-23T04:38:35;9.20;99.90
5276;DHT22;2661;50.786;12.728;2022-10-23T04:41:01;9.20;99.90
5276;DHT22;2661;50.786;12.728;2022-10-23T04:43:28;9.20;99.90
5276;DHT22;2661;50.786;12.728;2022-10-23T04:45:54;9.20;99.90
5276;DHT22;2661;50.786;12.728;2022-10-23T04:48:21;9.20;99.90
5276;DHT22;2661;50.786;12.728;2022-10-23T04:50:54;9.20;99.90
5276;DHT22;2661;50.786;12.728;2022-10-23T04:53:22;9.10;99.90
5276;DHT22;2661;50.786;12.728;2022-10-23T04:55:49;9.10;99.90
5276;DHT22;2661;50.786;12.728;2022-10-23T04:58:16;9.10;99.90
5276;DHT22;2661;50.786;12.728;2022-10-23T05:00:42;9.10;99.90
5276;DHT22;2661;50.786;12.728;2022-10-23T05:03:09;9.10;99.90
5276;DHT22;2661;50.786;12.728;2022-10-23T05:05:35;9.10;99.90
5276;DHT22;2661;50.786;12.728;2022-10-23T05:08:02;9.10;99.90
5276;DHT22;2661;50.786;12.728;2022-10-23T05:10:29;9.00;99.90
5276;DHT22;2661;50.786;12.728;2022-10-23T05:12:55;9.00;99.90
5276;DHT22;2661;50.786;12.728;2022-10-23T05:15:22;9.00;99.90
5276;DHT22;2661;50.786;12.728;2022-10-23T05:17:50;9.00;99.90
5276;DHT22;2661;50.786;12.728;2022-10-23T05:20:19;9.00;99.90
5276;DHT22;2661;50.786;12.728;2022-10-23T05:22:46;8.90;99.90
5276;DHT22;2661;50.786;12.728;2022-10-23T05:25:15;8.90;99.90
5276;DHT22;2661;50.786;12.728;2022-10-23T05:27:42;8.90;99.90
5276;DHT22;2661;50.786;12.728;2022-10-23T05:30:09;8.90;99.90
5276;DHT22;2661;50.786;12.728;2022-10-23T05:32:36;8.90;99.90
5276;DHT22;2661;50.786;12.728;2022-10-23T05:35:07;8.90;99.90
5276;DHT22;2661;50.786;12.728;2022-10-23T05:37:38;8.90;99.90
5276;DHT22;2661;50.786;12.728;2022-10-23T05:40:06;8.90;99.90
5276;DHT22;2661;50.786;12.728;2022-10-23T05:42:32;8.90;99.90
5276;DHT22;2661;50.786;12.728;2022-10-23T05:45:03;8.80;99.90
5276;DHT22;2661;50.786;12.728;2022-10-23T05:47:30;8.90;99.90
5276;DHT22;2661;50.786;12.728;2022-10-23T05:49:56;8.90;99.90
5276;DHT22;2661;50.786;12.728;2022-10-23T05:52:23;8.80;99.90
5276;DHT22;2661;50.786;12.728;2022-10-23T05:54:50;8.80;99.90
5276;DHT22;2661;50.786;12.728;2022-10-23T05:57:17;8.80;99.90
5276;DHT22;2661;50.786;12.728;2022-10-23T05:59:44;8.80;85.30
5276;DHT22;2661;50.786;12.728;2022-10-23T06:02:10;8.80;99.90
5276;DHT22;2661;50.786;12.728;2022-10-23T06:04:37;8.80;99.90
5276;DHT22;2661;50.786;12.728;2022-10-23T06:07:03;8.80;99.50
5276;DHT22;2661;50.786;12.728;2022-10-23T06:09:30;8.80;99.90
5276;DHT22;2661;50.786;12.728;2022-10-23T06:11:56;8.80;98.50
5276;DHT22;2661;50.786;12.728;2022-10-23T06:14:23;8.80;73.00
5276;DHT22;2661;50.786;12.728;2022-10-23T06:16:50;8.70;72.20
5276;DHT22;2661;50.786;12.728;2022-10-23T06:19:16;8.80;99.90
5276;DHT22;2661;50.786;12.728;2022-10-23T06:21:43;8.80;99.90
5276;DHT22;2661;50.786;12.728;2022-10-23T06:24:09;8.80;99.90
5276;DHT22;2661;50.786;12.728;2022-10-23T06:26:36;8.80;99.90
5276;DHT22;2661;50.786;12.728;2022-10-23T06:29:03;8.80;99.90
5276;DHT22;2661;50.786;12.728;2022-10-23T06:31:29;8.80;99.90
5276;DHT22;2661;50.786;12.728;2022-10-23T06:33:56;8.80;99.90
5276;DHT22;2661;50.786;12.728;2022-10-23T06:36:23;8.90;99.90
5276;DHT22;2661;50.786;12.728;2022-10-23T06:38:50;8.90;99.90
5276;DHT22;2661;50.786;12.728;2022-10-23T06:41:18;8.90;99.90
5276;DHT22;2661;50.786;12.728;2022-10-23T06:43:51;9.00;99.90
5276;DHT22;2661;50.786;12.728;2022-10-23T06:46:18;9.00;99.90
5276;DHT22;2661;50.786;12.728;2022-10-23T06:48:45;9.00;90.10
5276;DHT22;2661;50.786;12.728;2022-10-23T06:51:12;9.00;99.90
5276;DHT22;2661;50.786;12.728;2022-10-23T06:53:39;9.00;99.90
5276;DHT22;2661;50.786;12.728;2022-10-23T06:56:06;9.10;99.90
5276;DHT22;2661;50.786;12.728;2022-10-23T06:58:34;9.10;99.90
5276;DHT22;2661;50.786;12.728;2022-10-23T07:01:01;9.20;99.90
5276;DHT22;2661;50.786;12.728;2022-10-23T07:03:28;9.20;99.90
5276;DHT22;2661;50.786;12.728;2022-10-23T07:05:55;9.30;99.90
5276;DHT22;2661;50.786;12.728;2022-10-23T07:08:22;9.40;99.90
5276;DHT22;2661;50.786;12.728;2022-10-23T07:10:49;9.40;99.90
5276;DHT22;2661;50.786;12.728;2022-10-23T07:13:15;9.50;99.90
5276;DHT22;2661;50.786;12.728;2022-10-23T07:15:42;9.60;99.90
5276;DHT22;2661;50.786;12.728;2022-10-23T07:18:09;9.70;1.00
5276;DHT22;2661;50.786;12.728;2022-10-23T07:20:40;9.70;1.00
5276;DHT22;2661;50.786;12.728;2022-10-23T07:23:06;9.80;1.00
5276;DHT22;2661;50.786;12.728;2022-10-23T07:25:34;9.90;1.00
5276;DHT22;2661;50.786;12.728;2022-10-23T07:28:00;10.00;1.00
5276;DHT22;2661;50.786;12.728;2022-10-23T07:30:27;10.10;1.20
5276;DHT22;2661;50.786;12.728;2022-10-23T07:32:54;10.20;13.30
5276;DHT22;2661;50.786;12.728;2022-10-23T07:35:20;10.30;90.70
5276;DHT22;2661;50.786;12.728;2022-10-23T07:37:47;10.40;99.90
5276;DHT22;2661;50.786;12.728;2022-10-23T07:40:14;10.50;99.90
5276;DHT22;2661;50.786;12.728;2022-10-23T07:42:40;10.60;99.90
5276;DHT22;2661;50.786;12.728;2022-10-23T07:45:07;10.70;99.90
5276;DHT22;2661;50.786;12.728;2022-10-23T07:47:34;10.70;99.90
5276;DHT22;2661;50.786;12.728;2022-10-23T07:50:00;10.80;1.00
5276;DHT22;2661;50.786;12.728;2022-10-23T07:52:27;10.90;1.00
5276;DHT22;2661;50.786;12.728;2022-10-23T07:55:00;11.00;1.00
5276;DHT22;2661;50.786;12.728;2022-10-23T07:57:27;11.10;1.00
5276;DHT22;2661;50.786;12.728;2022-10-23T07:59:53;11.20;1.00
5276;DHT22;2661;50.786;12.728;2022-10-23T08:02:20;11.30;99.90
5276;DHT22;2661;50.786;12.728;2022-10-23T08:04:49;11.40;99.90
5276;DHT22;2661;50.786;12.728;2022-10-23T08:07:16;11.50;99.90
5276;DHT22;2661;50.786;12.728;2022-10-23T08:09:43;11.60;99.90
5276;DHT22;2661;50.786;12.728;2022-10-23T08:12:09;11.70;99.90
5276;DHT22;2661;50.786;12.728;2022-10-23T08:14:36;11.70;99.90
5276;DHT22;2661;50.786;12.728;2022-10-23T08:17:02;11.80;99.90
5276;DHT22;2661;50.786;12.728;2022-10-23T08:19:30;11.90;99.90
5276;DHT22;2661;50.786;12.728;2022-10-23T08:21:57;12.00;99.90
5276;DHT22;2661;50.786;12.728;2022-10-23T08:24:24;12.10;99.90
5276;DHT22;2661;50.786;12.728;2022-10-23T08:26:50;12.20;1.00
5276;DHT22;2661;50.786;12.728;2022-10-23T08:29:17;12.30;1.00
5276;DHT22;2661;50.786;12.728;2022-10-23T08:31:43;12.40;1.00
5276;DHT22;2661;50.786;12.728;2022-10-23T08:34:10;12.50;1.00
5276;DHT22;2661;50.786;12.728;2022-10-23T08:36:37;12.60;99.90
5276;DHT22;2661;50.786;12.728;2022-10-23T08:39:04;12.80;99.90
5276;DHT22;2661;50.786;12.728;2022-10-23T08:41:32;12.90;74.90
5276;DHT22;2661;50.786;12.728;2022-10-23T08:46:46;12.90;11.30
5276;DHT22;2661;50.786;12.728;2022-10-23T08:52:01;13.00;26.00
5276;DHT22;2661;50.786;12.728;2022-10-23T08:57:12;13.10;5.30
5276;DHT22;2661;50.786;12.728;2022-10-23T08:59:47;13.10;4.50
5276;DHT22;2661;50.786;12.728;2022-10-23T09:02:17;13.10;3.30
5276;DHT22;2661;50.786;12.728;2022-10-23T09:04:47;13.20;1.20
5276;DHT22;2661;50.786;12.728;2022-10-23T09:07:23;13.20;1.00
5276;DHT22;2661;50.786;12.728;2022-10-23T09:09:54;13.20;1.20
5276;DHT22;2661;50.786;12.728;2022-10-23T09:12:26;13.20;1.00
5276;DHT22;2661;50.786;12.728;2022-10-23T09:17:40;13.50;1.80
5276;DHT22;2661;50.786;12.728;2022-10-23T09:20:18;13.70;1.00
5276;DHT22;2661;50.786;12.728;2022-10-23T09:22:46;13.80;1.00
5276;DHT22;2661;50.786;12.728;2022-10-23T09:25:17;13.90;1.00
5276;DHT22;2661;50.786;12.728;2022-10-23T09:27:45;14.10;1.00
5276;DHT22;2661;50.786;12.728;2022-10-23T09:30:50;14.20;1.00
5276;DHT22;2661;50.786;12.728;2022-10-23T09:33:17;14.30;1.00
5276;DHT22;2661;50.786;12.728;2022-10-23T09:36:19;14.40;1.00
5276;DHT22;2661;50.786;12.728;2022-10-23T09:43:38;14.60;1.00
5276;DHT22;2661;50.786;12.728;2022-10-23T09:46:05;14.70;1.00
5276;DHT22;2661;50.786;12.728;2022-10-23T09:48:33;14.80;1.00
5276;DHT22;2661;50.786;12.728;2022-10-23T09:51:00;14.90;11.90
5276;DHT22;2661;50.786;12.728;2022-10-23T09:56:04;14.90;1.00
5276;DHT22;2661;50.786;12.728;2022-10-23T09:58:34;14.80;1.00
5276;DHT22;2661;50.786;12.728;2022-10-23T10:01:01;14.90;1.00
5276;DHT22;2661;50.786;12.728;2022-10-23T10:03:28;14.90;1.00
5276;DHT22;2661;50.786;12.728;2022-10-23T10:05:56;15.00;1.00
5276;DHT22;2661;50.786;12.728;2022-10-23T10:20:56;15.30;1.00
5276;DHT22;2661;50.786;12.728;2022-10-23T10:23:27;15.30;1.00
5276;DHT22;2661;50.786;12.728;2022-10-23T10:39:15;15.60;21.10
5276;DHT22;2661;50.786;12.728;2022-10-23T10:41:53;15.60;1.00
5276;DHT22;2661;50.786;12.728;2022-10-23T10:47:14;15.70;1.00
5276;DHT22;2661;50.786;12.728;2022-10-23T10:52:38;15.60;1.00
5276;DHT22;2661;50.786;12.728;2022-10-23T10:55:30;15.60;6.90
5276;DHT22;2661;50.786;12.728;2022-10-23T10:58:04;15.60;6.10
5276;DHT22;2661;50.786;12.728;2022-10-23T11:00:36;15.50;8.80
5276;DHT22;2661;50.786;12.728;2022-10-23T11:03:10;15.50;5.10
5276;DHT22;2661;50.786;12.728;2022-10-23T11:05:44;15.50;5.70
5276;DHT22;2661;50.786;12.728;2022-10-23T11:08:16;15.50;3.60
5276;DHT22;2661;50.786;12.728;2022-10-23T11:10:47;15.50;22.70
5276;DHT22;2661;50.786;12.728;2022-10-23T11:13:28;15.50;1.00
5276;DHT22;2661;50.786;12.728;2022-10-23T11:16:00;15.60;37.60
5276;DHT22;2661;50.786;12.728;2022-10-23T11:18:29;15.70;55.30
5276;DHT22;2661;50.786;12.728;2022-10-23T11:20:58;15.80;4.30
5276;DHT22;2661;50.786;12.728;2022-10-23T11:26:05;15.90;72.30
5276;DHT22;2661;50.786;12.728;2022-10-23T11:28:40;16.00;53.20
5276;DHT22;2661;50.786;12.728;2022-10-23T11:36:16;16.00;99.90
5276;DHT22;2661;50.786;12.728;2022-10-23T11:38:49;16.10;97.60
5276;DHT22;2661;50.786;12.728;2022-10-23T11:48:48;16.10;56.40
5276;DHT22;2661;50.786;12.728;2022-10-23T12:04:50;15.90;98.20
5276;DHT22;2661;50.786;12.728;2022-10-23T12:07:22;16.00;92.10
5276;DHT22;2661;50.786;12.728;2022-10-23T12:09:54;15.90;97.20
5276;DHT22;2661;50.786;12.728;2022-10-23T12:12:32;15.90;99.90
5276;DHT22;2661;50.786;12.728;2022-10-23T12:17:33;15.90;98.40
5276;DHT22;2661;50.786;12.728;2022-10-23T12:20:03;15.90;96.30
5276;DHT22;2661;50.786;12.728;2022-10-23T12:25:18;16.00;99.90
5276;DHT22;2661;50.786;12.728;2022-10-23T12:30:19;16.00;99.90
5276;DHT22;2661;50.786;12.728;2022-10-23T12:33:04;16.00;99.90
5276;DHT22;2661;50.786;12.728;2022-10-23T12:38:23;16.00;99.90
5276;DHT22;2661;50.786;12.728;2022-10-23T12:40:51;15.90;99.90
5276;DHT22;2661;50.786;12.728;2022-10-23T12:43:22;15.90;99.90
5276;DHT22;2661;50.786;12.728;2022-10-23T12:45:50;15.90;99.90
5276;DHT22;2661;50.786;12.728;2022-10-23T12:48:17;16.00;99.90
5276;DHT22;2661;50.786;12.728;2022-10-23T12:50:46;16.00;99.90
5276;DHT22;2661;50.786;12.728;2022-10-23T12:53:14;16.00;99.90
5276;DHT22;2661;50.786;12.728;2022-10-23T12:56:00;16.00;99.90
5276;DHT22;2661;50.786;12.728;2022-10-23T12:58:29;16.00;99.90
5276;DHT22;2661;50.786;12.728;2022-10-23T13:00:58;16.00;99.90
5276;DHT22;2661;50.786;12.728;2022-10-23T13:03:25;15.90;99.90
5276;DHT22;2661;50.786;12.728;2022-10-23T13:05:52;15.90;99.90
5276;DHT22;2661;50.786;12.728;2022-10-23T13:08:20;15.90;97.10
5276;DHT22;2661;50.786;12.728;2022-10-23T13:10:47;15.90;99.90
5276;DHT22;2661;50.786;12.728;2022-10-23T13:13:16;15.90;98.80
5276;DHT22;2661;50.786;12.728;2022-10-23T13:15:45;15.90;99.90
5276;DHT22;2661;50.786;12.728;2022-10-23T13:18:12;15.90;99.90
5276;DHT22;2661;50.786;12.728;2022-10-23T13:20:53;15.90;99.90
5276;DHT22;2661;50.786;12.728;2022-10-23T13:23:27;15.90;99.90
5276;DHT22;2661;50.786;12.728;2022-10-23T13:26:18;15.90;99.90
5276;DHT22;2661;50.786;12.728;2022-10-23T13:28:46;15.90;96.50
5276;DHT22;2661;50.786;12.728;2022-10-23T13:33:40;15.80;93.00
5276;DHT22;2661;50.786;12.728;2022-10-23T13:38:35;15.80;92.60
5276;DHT22;2661;50.786;12.728;2022-10-23T13:41:03;15.80;97.60
5276;DHT22;2661;50.786;12.728;2022-10-23T13:43:30;15.80;97.30
5276;DHT22;2661;50.786;12.728;2022-10-23T13:45:57;15.80;92.10
5276;DHT22;2661;50.786;12.728;2022-10-23T13:48:24;15.80;92.60
5276;DHT22;2661;50.786;12.728;2022-10-23T13:50:51;15.70;88.70
5276;DHT22;2661;50.786;12.728;2022-10-23T13:53:18;15.70;95.00
5276;DHT22;2661;50.786;12.728;2022-10-23T13:55:45;15.70;96.40
5276;DHT22;2661;50.786;12.728;2022-10-23T13:58:13;15.70;68.70
5276;DHT22;2661;50.786;12.728;2022-10-23T14:00:39;15.70;98.10
5276;DHT22;2661;50.786;12.728;2022-10-23T14:03:08;15.60;98.20
5276;DHT22;2661;50.786;12.728;2022-10-23T14:05:35;15.70;94.60
5276;DHT22;2661;50.786;12.728;2022-10-23T14:08:02;15.60;99.90
5276;DHT22;2661;50.786;12.728;2022-10-23T14:10:28;15.60;95.10
5276;DHT22;2661;50.786;12.728;2022-10-23T14:12:55;15.60;99.90
5276;DHT22;2661;50.786;12.728;2022-10-23T14:15:22;15.60;76.90
5276;DHT22;2661;50.786;12.728;2022-10-23T14:17:48;15.70;94.80
5276;DHT22;2661;50.786;12.728;2022-10-23T14:20:15;15.70;95.90
5276;DHT22;2661;50.786;12.728;2022-10-23T14:22:44;15.70;99.90
5276;DHT22;2661;50.786;12.728;2022-10-23T14:25:11;15.70;99.90
5276;DHT22;2661;50.786;12.728;2022-10-23T14:27:38;15.70;99.90
5276;DHT22;2661;50.786;12.728;2022-10-23T14:30:05;15.70;99.90
5276;DHT22;2661;50.786;12.728;2022-10-23T14:32:32;15.70;99.90
5276;DHT22;2661;50.786;12.728;2022-10-23T14:34:58;15.70;99.90
5276;DHT22;2661;50.786;12.728;2022-10-23T14:37:29;15.70;73.00
5276;DHT22;2661;50.786;12.728;2022-10-23T14:39:56;15.70;92.60
5276;DHT22;2661;50.786;12.728;2022-10-23T14:42:23;15.60;99.90
5276;DHT22;2661;50.786;12.728;2022-10-23T14:44:50;15.60;99.90
5276;DHT22;2661;50.786;12.728;2022-10-23T14:47:16;15.60;99.90
5276;DHT22;2661;50.786;12.728;2022-10-23T14:49:45;15.50;99.90
5276;DHT22;2661;50.786;12.728;2022-10-23T14:52:14;15.50;99.30
5276;DHT22;2661;50.786;12.728;2022-10-23T14:54:41;15.40;99.90
5276;DHT22;2661;50.786;12.728;2022-10-23T14:57:07;15.40;99.90
5276;DHT22;2661;50.786;12.728;2022-10-23T14:59:34;15.30;92.60
5276;DHT22;2661;50.786;12.728;2022-10-23T15:02:01;15.30;56.10
5276;DHT22;2661;50.786;12.728;2022-10-23T15:04:27;15.20;78.50
5276;DHT22;2661;50.786;12.728;2022-10-23T15:06:54;15.20;89.40
5276;DHT22;2661;50.786;12.728;2022-10-23T15:09:20;15.20;92.80
5276;DHT22;2661;50.786;12.728;2022-10-23T15:11:47;15.20;93.50
5276;DHT22;2661;50.786;12.728;2022-10-23T15:14:14;15.20;97.90
5276;DHT22;2661;50.786;12.728;2022-10-23T15:16:40;15.10;97.10
5276;DHT22;2661;50.786;12.728;2022-10-23T15:19:08;15.10;98.60
5276;DHT22;2661;50.786;12.728;2022-10-23T15:21:40;15.10;98.10
5276;DHT22;2661;50.786;12.728;2022-10-23T15:24:07;15.10;88.50
5276;DHT22;2661;50.786;12.728;2022-10-23T15:26:34;15.10;92.00
5276;DHT22;2661;50.786;12.728;2022-10-23T15:29:00;15.00;93.90
5276;DHT22;2661;50.786;12.728;2022-10-23T15:34:03;14.90;87.60
5276;DHT22;2661;50.786;12.728;2022-10-23T15:36:30;14.80;93.20
5276;DHT22;2661;50.786;12.728;2022-10-23T15:38:56;14.80;99.90
5276;DHT22;2661;50.786;12.728;2022-10-23T15:41:26;14.70;98.60
5276;DHT22;2661;50.786;12.728;2022-10-23T15:43:55;14.60;73.30
5276;DHT22;2661;50.786;12.728;2022-10-23T15:46:23;14.50;92.70
5276;DHT22;2661;50.786;12.728;2022-10-23T15:48:49;14.50;93.80
5276;DHT22;2661;50.786;12.728;2022-10-23T15:51:16;14.40;99.90
5276;DHT22;2661;50.786;12.728;2022-10-23T15:53:43;14.40;92.30
5276;DHT22;2661;50.786;12.728;2022-10-23T15:56:09;14.30;99.90
5276;DHT22;2661;50.786;12.728;2022-10-23T15:58:36;14.30;95.20
5276;DHT22;2661;50.786;12.728;2022-10-23T16:01:03;14.30;94.50
5276;DHT22;2661;50.786;12.728;2022-10-23T16:03:33;14.30;85.40
5276;DHT22;2661;50.786;12.728;2022-10-23T16:06:07;14.20;68.80
5276;DHT22;2661;50.786;12.728;2022-10-23T16:08:34;14.20;91.70
5276;DHT22;2661;50.786;12.728;2022-10-23T16:11:01;14.10;99.90
5276;DHT22;2661;50.786;12.728;2022-10-23T16:13:27;14.10;81.00
5276;DHT22;2661;50.786;12.728;2022-10-23T16:15:54;14.10;99.90
5276;DHT22;2661;50.786;12.728;2022-10-23T16:18:21;14.10;99.90
5276;DHT22;2661;50.786;12.728;2022-10-23T16:20:48;14.00;99.90
5276;DHT22;2661;50.786;12.728;2022-10-23T16:23:16;14.00;99.90
5276;DHT22;2661;50.786;12.728;2022-10-23T16:25:43;14.00;98.70
5276;DHT22;2661;50.786;12.728;2022-10-23T16:28:10;13.90;96.20
5276;DHT22;2661;50.786;12.728;2022-10-23T16:30:41;13.90;99.10
5276;DHT22;2661;50.786;12.728;2022-10-23T16:33:07;13.90;99.90
5276;DHT22;2661;50.786;12.728;2022-10-23T16:35:34;13.80;99.90
5276;DHT22;2661;50.786;12.728;2022-10-23T16:38:01;13.80;99.90
5276;DHT22;2661;50.786;12.728;2022-10-23T16:40:28;13.80;99.90
5276;DHT22;2661;50.786;12.728;2022-10-23T16:42:55;13.70;99.90
5276;DHT22;2661;50.786;12.728;2022-10-23T16:45:22;13.70;99.90
5276;DHT22;2661;50.786;12.728;2022-10-23T16:47:49;13.60;99.90
5276;DHT22;2661;50.786;12.728;2022-10-23T16:50:15;13.60;99.90
5276;DHT22;2661;50.786;12.728;2022-10-23T16:52:42;13.60;99.90
5276;DHT22;2661;50.786;12.728;2022-10-23T16:55:09;13.50;99.90
5276;DHT22;2661;50.786;12.728;2022-10-23T16:57:35;13.50;99.90
5276;DHT22;2661;50.786;12.728;2022-10-23T17:00:04;13.50;99.90
5276;DHT22;2661;50.786;12.728;2022-10-23T17:02:31;13.50;99.90
5276;DHT22;2661;50.786;12.728;2022-10-23T17:04:58;13.40;99.90
5276;DHT22;2661;50.786;12.728;2022-10-23T17:07:25;13.40;99.90
5276;DHT22;2661;50.786;12.728;2022-10-23T17:09:51;13.40;99.90
5276;DHT22;2661;50.786;12.728;2022-10-23T17:12:18;13.20;99.90
5276;DHT22;2661;50.786;12.728;2022-10-23T17:14:44;13.20;99.90
5276;DHT22;2661;50.786;12.728;2022-10-23T17:17:11;13.10;99.90
5276;DHT22;2661;50.786;12.728;2022-10-23T17:19:38;13.00;99.90
5276;DHT22;2661;50.786;12.728;2022-10-23T17:22:12;13.00;99.90
5276;DHT22;2661;50.786;12.728;2022-10-23T17:24:39;12.90;99.90
5276;DHT22;2661;50.786;12.728;2022-10-23T17:27:06;12.90;99.90
5276;DHT22;2661;50.786;12.728;2022-10-23T17:29:33;12.80;99.90
5276;DHT22;2661;50.786;12.728;2022-10-23T17:32:00;12.70;99.90
5276;DHT22;2661;50.786;12.728;2022-10-23T17:34:27;12.60;99.90
5276;DHT22;2661;50.786;12.728;2022-10-23T17:36:54;12.60;99.90
5276;DHT22;2661;50.786;12.728;2022-10-23T17:39:22;12.50;99.90
5276;DHT22;2661;50.786;12.728;2022-10-23T17:41:49;12.50;99.90
5276;DHT22;2661;50.786;12.728;2022-10-23T17:44:16;12.50;99.90
5276;DHT22;2661;50.786;12.728;2022-10-23T17:46:42;12.40;99.90
5276;DHT22;2661;50.786;12.728;2022-10-23T17:49:09;12.40;99.90
5276;DHT22;2661;50.786;12.728;2022-10-23T17:51:36;12.40;99.90
5276;DHT22;2661;50.786;12.728;2022-10-23T17:54:04;12.40;99.90
5276;DHT22;2661;50.786;12.728;2022-10-23T17:56:32;12.50;99.90
5276;DHT22;2661;50.786;12.728;2022-10-23T17:59:01;12.50;99.90
5276;DHT22;2661;50.786;12.728;2022-10-23T18:01:29;12.50;99.90